sensor_id;sensor_type;location;lat;lon;timestamp;temperature;humidity
36800;DHT22;22752;51.960;5.886;2022-07-21T00:01:08;20.40;99.90
36800;DHT22;22752;51.960;5.886;2022-07-21T00:03:34;20.40;99.90
36800;DHT22;22752;51.960;5.886;2022-07-21T00:06:00;20.30;99.90
36800;DHT22;22752;51.960;5.886;2022-07-21T00:08:26;20.30;99.90
36800;DHT22;22752;51.960;5.886;2022-07-21T00:10:51;20.30;99.90
36800;DHT22;22752;51.960;5.886;2022-07-21T00:13:18;20.40;99.90
36800;DHT22;22752;51.960;5.886;2022-07-21T00:15:44;20.50;99.90
36800;DHT22;22752;51.960;5.886;2022-07-21T00:18:10;20.50;99.90
36800;DHT22;22752;51.960;5.886;2022-07-21T00:20:36;20.60;99.90
36800;DHT22;22752;51.960;5.886;2022-07-21T00:23:02;20.60;99.90
36800;DHT22;22752;51.960;5.886;2022-07-21T00:25:27;20.70;99.90
36800;DHT22;22752;51.960;5.886;2022-07-21T00:27:53;20.80;99.90
36800;DHT22;22752;51.960;5.886;2022-07-21T00:30:19;20.70;99.90
36800;DHT22;22752;51.960;5.886;2022-07-21T00:32:45;20.70;99.90
36800;DHT22;22752;51.960;5.886;2022-07-21T00:35:11;20.70;99.90
36800;DHT22;22752;51.960;5.886;2022-07-21T00:37:38;20.80;99.90
36800;DHT22;22752;51.960;5.886;2022-07-21T00:40:05;20.80;99.90
36800;DHT22;22752;51.960;5.886;2022-07-21T00:42:32;20.80;99.90
36800;DHT22;22752;51.960;5.886;2022-07-21T00:44:59;20.80;99.90
36800;DHT22;22752;51.960;5.886;2022-07-21T00:47:28;20.70;99.90
36800;DHT22;22752;51.960;5.886;2022-07-21T00:49:55;20.70;99.90
36800;DHT22;22752;51.960;5.886;2022-07-21T00:52:21;20.70;99.90
36800;DHT22;22752;51.960;5.886;2022-07-21T00:54:47;20.70;99.90
36800;DHT22;22752;51.960;5.886;2022-07-21T00:57:13;20.70;99.90
36800;DHT22;22752;51.960;5.886;2022-07-21T00:59:40;20.70;99.90
36800;DHT22;22752;51.960;5.886;2022-07-21T01:02:06;20.70;99.90
36800;DHT22;22752;51.960;5.886;2022-07-21T01:04:32;20.70;99.90
36800;DHT22;22752;51.960;5.886;2022-07-21T01:07:00;20.70;99.90
36800;DHT22;22752;51.960;5.886;2022-07-21T01:09:27;20.60;99.90
36800;DHT22;22752;51.960;5.886;2022-07-21T01:11:53;20.60;99.90
36800;DHT22;22752;51.960;5.886;2022-07-21T01:14:19;20.50;99.90
36800;DHT22;22752;51.960;5.886;2022-07-21T01:16:45;20.50;99.90
36800;DHT22;22752;51.960;5.886;2022-07-21T01:19:11;20.50;99.90
36800;DHT22;22752;51.960;5.886;2022-07-21T01:21:39;20.50;99.90
36800;DHT22;22752;51.960;5.886;2022-07-21T01:24:05;20.40;99.90
36800;DHT22;22752;51.960;5.886;2022-07-21T01:26:39;20.40;99.90
36800;DHT22;22752;51.960;5.886;2022-07-21T01:29:05;20.30;99.90
36800;DHT22;22752;51.960;5.886;2022-07-21T01:31:31;20.30;99.90
36800;DHT22;22752;51.960;5.886;2022-07-21T01:33:56;20.20;99.90
36800;DHT22;22752;51.960;5.886;2022-07-21T01:36:22;20.20;99.90
36800;DHT22;22752;51.960;5.886;2022-07-21T01:38:47;20.20;99.90
36800;DHT22;22752;51.960;5.886;2022-07-21T01:41:31;20.20;99.90
36800;DHT22;22752;51.960;5.886;2022-07-21T01:44:07;20.10;99.90
36800;DHT22;22752;51.960;5.886;2022-07-21T01:46:36;20.00;99.90
36800;DHT22;22752;51.960;5.886;2022-07-21T01:49:03;20.00;99.90
36800;DHT22;22752;51.960;5.886;2022-07-21T01:51:29;20.00;99.90
36800;DHT22;22752;51.960;5.886;2022-07-21T01:53:55;20.00;99.90
36800;DHT22;22752;51.960;5.886;2022-07-21T01:56:23;20.00;99.90
36800;DHT22;22752;51.960;5.886;2022-07-21T01:58:51;20.00;99.90
36800;DHT22;22752;51.960;5.886;2022-07-21T02:01:17;20.00;99.90
36800;DHT22;22752;51.960;5.886;2022-07-21T02:03:44;20.00;99.90
36800;DHT22;22752;51.960;5.886;2022-07-21T02:06:11;20.00;99.90
36800;DHT22;22752;51.960;5.886;2022-07-21T02:08:38;19.90;99.90
36800;DHT22;22752;51.960;5.886;2022-07-21T02:11:05;19.90;99.90
36800;DHT22;22752;51.960;5.886;2022-07-21T02:13:31;19.90;99.90
36800;DHT22;22752;51.960;5.886;2022-07-21T02:15:57;19.80;99.90
36800;DHT22;22752;51.960;5.886;2022-07-21T02:18:22;19.70;99.90
36800;DHT22;22752;51.960;5.886;2022-07-21T02:20:48;19.70;99.90
36800;DHT22;22752;51.960;5.886;2022-07-21T02:23:16;19.60;99.90
36800;DHT22;22752;51.960;5.886;2022-07-21T02:25:41;19.60;99.90
36800;DHT22;22752;51.960;5.886;2022-07-21T02:28:07;19.50;99.90
36800;DHT22;22752;51.960;5.886;2022-07-21T02:30:33;19.50;99.90
36800;DHT22;22752;51.960;5.886;2022-07-21T02:32:58;19.50;99.90
36800;DHT22;22752;51.960;5.886;2022-07-21T02:35:24;19.50;99.90
36800;DHT22;22752;51.960;5.886;2022-07-21T02:37:50;19.50;99.90
36800;DHT22;22752;51.960;5.886;2022-07-21T02:40:15;19.50;99.90
36800;DHT22;22752;51.960;5.886;2022-07-21T02:42:41;19.50;99.90
36800;DHT22;22752;51.960;5.886;2022-07-21T02:45:08;19.60;99.90
36800;DHT22;22752;51.960;5.886;2022-07-21T02:47:54;19.60;99.90
36800;DHT22;22752;51.960;5.886;2022-07-21T02:50:23;19.60;99.90
36800;DHT22;22752;51.960;5.886;2022-07-21T02:52:49;19.60;99.90
36800;DHT22;22752;51.960;5.886;2022-07-21T02:55:15;19.60;99.90
36800;DHT22;22752;51.960;5.886;2022-07-21T02:57:41;19.60;99.90
36800;DHT22;22752;51.960;5.886;2022-07-21T03:00:09;19.70;99.90
36800;DHT22;22752;51.960;5.886;2022-07-21T03:02:34;19.70;99.90
36800;DHT22;22752;51.960;5.886;2022-07-21T03:05:00;19.80;99.90
36800;DHT22;22752;51.960;5.886;2022-07-21T03:07:26;19.80;99.90
36800;DHT22;22752;51.960;5.886;2022-07-21T03:09:52;19.90;99.90
36800;DHT22;22752;51.960;5.886;2022-07-21T03:12:18;19.90;99.90
36800;DHT22;22752;51.960;5.886;2022-07-21T03:14:43;19.90;99.90
36800;DHT22;22752;51.960;5.886;2022-07-21T03:17:09;20.00;99.90
36800;DHT22;22752;51.960;5.886;2022-07-21T03:19:35;20.00;99.90
36800;DHT22;22752;51.960;5.886;2022-07-21T03:22:00;20.10;99.90
36800;DHT22;22752;51.960;5.886;2022-07-21T03:24:26;20.10;99.90
36800;DHT22;22752;51.960;5.886;2022-07-21T03:26:52;20.10;99.90
36800;DHT22;22752;51.960;5.886;2022-07-21T03:29:18;20.10;99.90
36800;DHT22;22752;51.960;5.886;2022-07-21T03:31:43;20.10;99.90
36800;DHT22;22752;51.960;5.886;2022-07-21T03:34:09;20.00;99.90
36800;DHT22;22752;51.960;5.886;2022-07-21T03:36:34;20.00;99.90
36800;DHT22;22752;51.960;5.886;2022-07-21T03:39:00;19.90;99.90
36800;DHT22;22752;51.960;5.886;2022-07-21T03:41:26;19.90;99.90
36800;DHT22;22752;51.960;5.886;2022-07-21T03:43:51;19.90;99.90
36800;DHT22;22752;51.960;5.886;2022-07-21T03:46:17;19.90;99.90
36800;DHT22;22752;51.960;5.886;2022-07-21T03:48:43;19.90;99.90
36800;DHT22;22752;51.960;5.886;2022-07-21T03:51:08;19.90;99.90
36800;DHT22;22752;51.960;5.886;2022-07-21T03:53:34;19.90;99.90
36800;DHT22;22752;51.960;5.886;2022-07-21T03:56:00;19.90;99.90
36800;DHT22;22752;51.960;5.886;2022-07-21T03:58:26;19.90;99.90
36800;DHT22;22752;51.960;5.886;2022-07-21T04:00:52;19.90;99.90
36800;DHT22;22752;51.960;5.886;2022-07-21T04:03:18;19.90;99.90
36800;DHT22;22752;51.960;5.886;2022-07-21T04:05:43;19.80;99.90
36800;DHT22;22752;51.960;5.886;2022-07-21T04:08:11;19.90;99.90
36800;DHT22;22752;51.960;5.886;2022-07-21T04:10:39;19.90;99.90
36800;DHT22;22752;51.960;5.886;2022-07-21T04:13:07;19.80;99.90
36800;DHT22;22752;51.960;5.886;2022-07-21T04:15:34;19.80;99.90
36800;DHT22;22752;51.960;5.886;2022-07-21T04:18:00;19.80;99.90
36800;DHT22;22752;51.960;5.886;2022-07-21T04:20:26;19.80;99.90
36800;DHT22;22752;51.960;5.886;2022-07-21T04:22:52;19.80;99.90
36800;DHT22;22752;51.960;5.886;2022-07-21T04:25:18;19.90;99.90
36800;DHT22;22752;51.960;5.886;2022-07-21T04:27:46;19.80;99.90
36800;DHT22;22752;51.960;5.886;2022-07-21T04:30:14;19.80;99.90
36800;DHT22;22752;51.960;5.886;2022-07-21T04:32:40;19.90;99.90
36800;DHT22;22752;51.960;5.886;2022-07-21T04:35:06;19.90;99.90
36800;DHT22;22752;51.960;5.886;2022-07-21T04:37:33;19.90;99.90
36800;DHT22;22752;51.960;5.886;2022-07-21T04:39:58;19.80;99.90
36800;DHT22;22752;51.960;5.886;2022-07-21T04:42:24;19.90;99.90
36800;DHT22;22752;51.960;5.886;2022-07-21T04:44:50;19.90;99.90
36800;DHT22;22752;51.960;5.886;2022-07-21T04:47:16;19.90;99.90
36800;DHT22;22752;51.960;5.886;2022-07-21T04:49:42;19.90;99.90
36800;DHT22;22752;51.960;5.886;2022-07-21T04:52:08;19.90;99.90
36800;DHT22;22752;51.960;5.886;2022-07-21T04:54:33;19.90;99.90
36800;DHT22;22752;51.960;5.886;2022-07-21T04:56:59;19.90;99.90
36800;DHT22;22752;51.960;5.886;2022-07-21T04:59:28;19.90;99.90
36800;DHT22;22752;51.960;5.886;2022-07-21T05:01:55;19.90;99.90
36800;DHT22;22752;51.960;5.886;2022-07-21T05:04:20;19.90;99.90
36800;DHT22;22752;51.960;5.886;2022-07-21T05:06:46;19.90;99.90
36800;DHT22;22752;51.960;5.886;2022-07-21T05:09:12;19.80;99.90
36800;DHT22;22752;51.960;5.886;2022-07-21T05:11:37;19.80;99.90
36800;DHT22;22752;51.960;5.886;2022-07-21T05:14:03;19.80;99.90
36800;DHT22;22752;51.960;5.886;2022-07-21T05:16:29;19.80;99.90
36800;DHT22;22752;51.960;5.886;2022-07-21T05:18:55;19.80;99.90
36800;DHT22;22752;51.960;5.886;2022-07-21T05:21:20;19.90;99.90
36800;DHT22;22752;51.960;5.886;2022-07-21T05:23:46;19.80;99.90
36800;DHT22;22752;51.960;5.886;2022-07-21T05:26:12;19.80;99.90
36800;DHT22;22752;51.960;5.886;2022-07-21T05:28:38;19.80;99.90
36800;DHT22;22752;51.960;5.886;2022-07-21T05:31:04;19.80;99.90
36800;DHT22;22752;51.960;5.886;2022-07-21T05:33:29;19.80;99.90
36800;DHT22;22752;51.960;5.886;2022-07-21T05:35:55;19.80;99.90
36800;DHT22;22752;51.960;5.886;2022-07-21T05:38:21;19.80;99.90
36800;DHT22;22752;51.960;5.886;2022-07-21T05:40:47;19.90;99.90
36800;DHT22;22752;51.960;5.886;2022-07-21T05:43:13;19.90;99.90
36800;DHT22;22752;51.960;5.886;2022-07-21T05:45:38;19.90;99.90
36800;DHT22;22752;51.960;5.886;2022-07-21T05:48:04;19.90;99.90
36800;DHT22;22752;51.960;5.886;2022-07-21T05:50:30;19.90;99.90
36800;DHT22;22752;51.960;5.886;2022-07-21T05:52:56;19.90;99.90
36800;DHT22;22752;51.960;5.886;2022-07-21T05:55:21;19.90;99.90
36800;DHT22;22752;51.960;5.886;2022-07-21T05:57:47;19.90;99.90
36800;DHT22;22752;51.960;5.886;2022-07-21T06:00:14;19.90;99.90
36800;DHT22;22752;51.960;5.886;2022-07-21T06:02:40;19.90;99.90
36800;DHT22;22752;51.960;5.886;2022-07-21T06:05:06;19.90;99.90
36800;DHT22;22752;51.960;5.886;2022-07-21T06:07:34;20.00;99.90
36800;DHT22;22752;51.960;5.886;2022-07-21T06:09:59;20.00;99.90
36800;DHT22;22752;51.960;5.886;2022-07-21T06:12:26;20.00;99.90
36800;DHT22;22752;51.960;5.886;2022-07-21T06:14:52;20.10;99.90
36800;DHT22;22752;51.960;5.886;2022-07-21T06:17:18;20.10;99.90
36800;DHT22;22752;51.960;5.886;2022-07-21T06:19:43;20.20;99.90
36800;DHT22;22752;51.960;5.886;2022-07-21T06:22:09;20.20;99.90
36800;DHT22;22752;51.960;5.886;2022-07-21T06:24:34;20.20;99.90
36800;DHT22;22752;51.960;5.886;2022-07-21T06:27:00;20.20;99.90
36800;DHT22;22752;51.960;5.886;2022-07-21T06:29:26;20.20;99.90
36800;DHT22;22752;51.960;5.886;2022-07-21T06:31:52;20.20;99.90
36800;DHT22;22752;51.960;5.886;2022-07-21T06:34:17;20.20;99.90
36800;DHT22;22752;51.960;5.886;2022-07-21T06:36:43;20.30;99.90
36800;DHT22;22752;51.960;5.886;2022-07-21T06:39:09;20.40;99.90
36800;DHT22;22752;51.960;5.886;2022-07-21T06:41:38;20.60;99.90
36800;DHT22;22752;51.960;5.886;2022-07-21T06:44:04;20.70;99.90
36800;DHT22;22752;51.960;5.886;2022-07-21T06:46:31;20.90;99.90
36800;DHT22;22752;51.960;5.886;2022-07-21T06:48:57;21.10;99.90
36800;DHT22;22752;51.960;5.886;2022-07-21T06:51:22;21.30;99.90
36800;DHT22;22752;51.960;5.886;2022-07-21T06:53:48;21.60;99.90
36800;DHT22;22752;51.960;5.886;2022-07-21T06:56:14;21.90;99.90
36800;DHT22;22752;51.960;5.886;2022-07-21T06:58:39;22.50;99.90
36800;DHT22;22752;51.960;5.886;2022-07-21T07:01:05;22.90;99.90
36800;DHT22;22752;51.960;5.886;2022-07-21T07:03:31;23.00;99.90
36800;DHT22;22752;51.960;5.886;2022-07-21T07:05:58;23.00;99.90
36800;DHT22;22752;51.960;5.886;2022-07-21T07:08:24;22.80;99.90
36800;DHT22;22752;51.960;5.886;2022-07-21T07:10:49;22.60;99.90
36800;DHT22;22752;51.960;5.886;2022-07-21T07:13:15;22.30;99.90
36800;DHT22;22752;51.960;5.886;2022-07-21T07:15:43;22.10;99.90
36800;DHT22;22752;51.960;5.886;2022-07-21T07:18:09;22.00;99.90
36800;DHT22;22752;51.960;5.886;2022-07-21T07:20:34;21.80;99.90
36800;DHT22;22752;51.960;5.886;2022-07-21T07:23:00;21.70;99.90
36800;DHT22;22752;51.960;5.886;2022-07-21T07:25:26;21.60;99.90
36800;DHT22;22752;51.960;5.886;2022-07-21T07:27:51;21.50;99.90
36800;DHT22;22752;51.960;5.886;2022-07-21T07:30:19;21.40;99.90
36800;DHT22;22752;51.960;5.886;2022-07-21T07:32:45;21.40;99.90
36800;DHT22;22752;51.960;5.886;2022-07-21T07:35:13;21.30;99.90
36800;DHT22;22752;51.960;5.886;2022-07-21T07:37:40;21.30;99.90
36800;DHT22;22752;51.960;5.886;2022-07-21T07:40:08;21.30;99.90
36800;DHT22;22752;51.960;5.886;2022-07-21T07:42:35;21.40;99.90
36800;DHT22;22752;51.960;5.886;2022-07-21T07:45:01;21.40;99.90
36800;DHT22;22752;51.960;5.886;2022-07-21T07:47:27;21.40;99.90
36800;DHT22;22752;51.960;5.886;2022-07-21T07:49:53;21.40;99.90
36800;DHT22;22752;51.960;5.886;2022-07-21T07:52:20;21.40;99.90
36800;DHT22;22752;51.960;5.886;2022-07-21T07:54:45;21.50;99.90
36800;DHT22;22752;51.960;5.886;2022-07-21T07:57:11;21.50;99.90
36800;DHT22;22752;51.960;5.886;2022-07-21T07:59:37;21.60;99.90
36800;DHT22;22752;51.960;5.886;2022-07-21T08:02:02;21.70;99.90
36800;DHT22;22752;51.960;5.886;2022-07-21T08:04:28;21.70;99.90
36800;DHT22;22752;51.960;5.886;2022-07-21T08:06:54;21.80;99.90
36800;DHT22;22752;51.960;5.886;2022-07-21T08:09:19;21.90;99.90
36800;DHT22;22752;51.960;5.886;2022-07-21T08:11:46;22.00;99.90
36800;DHT22;22752;51.960;5.886;2022-07-21T08:14:13;22.00;99.90
36800;DHT22;22752;51.960;5.886;2022-07-21T08:16:39;22.10;99.90
36800;DHT22;22752;51.960;5.886;2022-07-21T08:19:05;22.10;99.90
36800;DHT22;22752;51.960;5.886;2022-07-21T08:21:30;22.10;99.90
36800;DHT22;22752;51.960;5.886;2022-07-21T08:23:57;22.10;99.90
36800;DHT22;22752;51.960;5.886;2022-07-21T08:26:24;22.30;99.90
36800;DHT22;22752;51.960;5.886;2022-07-21T08:28:52;22.30;99.90
36800;DHT22;22752;51.960;5.886;2022-07-21T08:31:17;22.50;99.90
36800;DHT22;22752;51.960;5.886;2022-07-21T08:33:43;22.60;99.90
36800;DHT22;22752;51.960;5.886;2022-07-21T08:36:09;22.60;99.90
36800;DHT22;22752;51.960;5.886;2022-07-21T08:38:35;22.60;99.90
36800;DHT22;22752;51.960;5.886;2022-07-21T08:41:01;22.50;99.90
36800;DHT22;22752;51.960;5.886;2022-07-21T08:43:27;22.50;99.90
36800;DHT22;22752;51.960;5.886;2022-07-21T08:45:53;22.50;99.90
36800;DHT22;22752;51.960;5.886;2022-07-21T08:48:23;22.50;99.90
36800;DHT22;22752;51.960;5.886;2022-07-21T08:50:49;22.30;99.90
36800;DHT22;22752;51.960;5.886;2022-07-21T08:53:15;22.20;99.90
36800;DHT22;22752;51.960;5.886;2022-07-21T08:55:41;22.10;99.90
36800;DHT22;22752;51.960;5.886;2022-07-21T08:58:11;22.00;99.90
36800;DHT22;22752;51.960;5.886;2022-07-21T09:00:39;21.80;99.90
36800;DHT22;22752;51.960;5.886;2022-07-21T09:06:04;21.50;99.90
36800;DHT22;22752;51.960;5.886;2022-07-21T09:08:39;21.40;99.90
36800;DHT22;22752;51.960;5.886;2022-07-21T09:13:49;21.20;99.90
36800;DHT22;22752;51.960;5.886;2022-07-21T09:19:04;21.00;99.90
36800;DHT22;22752;51.960;5.886;2022-07-21T09:21:31;21.00;99.90
36800;DHT22;22752;51.960;5.886;2022-07-21T09:24:31;20.90;99.90
36800;DHT22;22752;51.960;5.886;2022-07-21T09:29:37;20.90;99.90
36800;DHT22;22752;51.960;5.886;2022-07-21T09:32:21;20.90;99.90
36800;DHT22;22752;51.960;5.886;2022-07-21T09:34:49;20.90;99.90
36800;DHT22;22752;51.960;5.886;2022-07-21T09:37:16;20.80;99.90
36800;DHT22;22752;51.960;5.886;2022-07-21T09:39:50;20.80;99.90
36800;DHT22;22752;51.960;5.886;2022-07-21T09:42:22;20.70;99.90
36800;DHT22;22752;51.960;5.886;2022-07-21T09:45:09;20.60;99.90
36800;DHT22;22752;51.960;5.886;2022-07-21T09:47:35;20.60;99.90
36800;DHT22;22752;51.960;5.886;2022-07-21T09:50:04;20.40;99.90
36800;DHT22;22752;51.960;5.886;2022-07-21T09:52:32;20.30;99.90
36800;DHT22;22752;51.960;5.886;2022-07-21T09:55:10;20.20;99.90
36800;DHT22;22752;51.960;5.886;2022-07-21T09:57:36;20.10;99.90
36800;DHT22;22752;51.960;5.886;2022-07-21T10:00:09;20.10;99.90
36800;DHT22;22752;51.960;5.886;2022-07-21T10:02:35;20.10;99.90
36800;DHT22;22752;51.960;5.886;2022-07-21T10:05:05;20.20;99.90
36800;DHT22;22752;51.960;5.886;2022-07-21T10:07:32;20.20;99.90
36800;DHT22;22752;51.960;5.886;2022-07-21T10:09:58;20.20;99.90
36800;DHT22;22752;51.960;5.886;2022-07-21T10:12:25;20.30;99.90
36800;DHT22;22752;51.960;5.886;2022-07-21T10:14:51;20.30;99.90
36800;DHT22;22752;51.960;5.886;2022-07-21T10:17:19;20.40;99.90
36800;DHT22;22752;51.960;5.886;2022-07-21T10:20:32;20.40;99.90
36800;DHT22;22752;51.960;5.886;2022-07-21T10:25:38;20.50;99.90
36800;DHT22;22752;51.960;5.886;2022-07-21T10:30:47;20.40;99.90
36800;DHT22;22752;51.960;5.886;2022-07-21T10:33:15;20.30;99.90
36800;DHT22;22752;51.960;5.886;2022-07-21T10:35:43;20.30;99.90
36800;DHT22;22752;51.960;5.886;2022-07-21T10:38:29;20.40;99.90
36800;DHT22;22752;51.960;5.886;2022-07-21T10:40:56;20.40;99.90
36800;DHT22;22752;51.960;5.886;2022-07-21T10:45:51;20.30;99.90
36800;DHT22;22752;51.960;5.886;2022-07-21T10:51:09;20.30;99.90
36800;DHT22;22752;51.960;5.886;2022-07-21T10:53:35;20.30;99.90
36800;DHT22;22752;51.960;5.886;2022-07-21T10:56:01;20.30;99.90
36800;DHT22;22752;51.960;5.886;2022-07-21T11:01:05;20.20;99.90
36800;DHT22;22752;51.960;5.886;2022-07-21T11:03:35;20.30;99.90
36800;DHT22;22752;51.960;5.886;2022-07-21T11:08:43;20.50;99.90
36800;DHT22;22752;51.960;5.886;2022-07-21T11:11:11;20.50;99.90
36800;DHT22;22752;51.960;5.886;2022-07-21T11:16:22;20.40;99.90
36800;DHT22;22752;51.960;5.886;2022-07-21T11:18:47;20.40;99.90
36800;DHT22;22752;51.960;5.886;2022-07-21T11:21:15;20.40;99.90
36800;DHT22;22752;51.960;5.886;2022-07-21T11:23:48;20.30;99.90
36800;DHT22;22752;51.960;5.886;2022-07-21T11:26:17;20.30;99.90
36800;DHT22;22752;51.960;5.886;2022-07-21T11:28:43;20.30;99.90
36800;DHT22;22752;51.960;5.886;2022-07-21T11:31:18;20.30;99.90
36800;DHT22;22752;51.960;5.886;2022-07-21T11:33:47;20.40;99.90
36800;DHT22;22752;51.960;5.886;2022-07-21T11:36:33;20.50;99.90
36800;DHT22;22752;51.960;5.886;2022-07-21T11:39:08;20.60;99.90
36800;DHT22;22752;51.960;5.886;2022-07-21T11:41:36;20.60;99.90
36800;DHT22;22752;51.960;5.886;2022-07-21T11:44:04;20.70;99.90
36800;DHT22;22752;51.960;5.886;2022-07-21T11:46:55;20.70;99.90
36800;DHT22;22752;51.960;5.886;2022-07-21T11:49:21;20.70;99.90
36800;DHT22;22752;51.960;5.886;2022-07-21T11:51:56;20.70;99.90
36800;DHT22;22752;51.960;5.886;2022-07-21T11:54:35;20.60;99.90
36800;DHT22;22752;51.960;5.886;2022-07-21T11:57:04;20.50;99.90
36800;DHT22;22752;51.960;5.886;2022-07-21T11:59:30;20.50;99.90
36800;DHT22;22752;51.960;5.886;2022-07-21T12:10:06;20.40;99.90
36800;DHT22;22752;51.960;5.886;2022-07-21T12:12:38;20.50;99.90
36800;DHT22;22752;51.960;5.886;2022-07-21T12:15:15;20.60;99.90
36800;DHT22;22752;51.960;5.886;2022-07-21T12:17:54;20.60;99.90
36800;DHT22;22752;51.960;5.886;2022-07-21T12:20:30;20.60;99.90
36800;DHT22;22752;51.960;5.886;2022-07-21T12:22:58;20.90;99.90
36800;DHT22;22752;51.960;5.886;2022-07-21T12:25:37;21.00;99.90
36800;DHT22;22752;51.960;5.886;2022-07-21T12:28:05;21.10;99.90
36800;DHT22;22752;51.960;5.886;2022-07-21T12:30:43;21.10;99.90
36800;DHT22;22752;51.960;5.886;2022-07-21T12:33:14;21.00;99.90
36800;DHT22;22752;51.960;5.886;2022-07-21T12:35:42;21.00;99.90
36800;DHT22;22752;51.960;5.886;2022-07-21T12:38:18;21.00;99.90
36800;DHT22;22752;51.960;5.886;2022-07-21T12:40:55;21.00;99.90
36800;DHT22;22752;51.960;5.886;2022-07-21T12:43:21;21.00;99.90
36800;DHT22;22752;51.960;5.886;2022-07-21T12:48:22;20.90;99.90
36800;DHT22;22752;51.960;5.886;2022-07-21T12:51:07;20.90;99.90
36800;DHT22;22752;51.960;5.886;2022-07-21T12:53:39;20.90;99.90
36800;DHT22;22752;51.960;5.886;2022-07-21T12:56:05;20.80;99.90
36800;DHT22;22752;51.960;5.886;2022-07-21T12:58:31;20.80;99.90
36800;DHT22;22752;51.960;5.886;2022-07-21T13:00:57;20.70;99.90
36800;DHT22;22752;51.960;5.886;2022-07-21T13:03:23;20.60;99.90
36800;DHT22;22752;51.960;5.886;2022-07-21T13:05:49;20.60;99.90
36800;DHT22;22752;51.960;5.886;2022-07-21T13:08:15;20.60;99.90
36800;DHT22;22752;51.960;5.886;2022-07-21T13:10:41;20.60;99.90
36800;DHT22;22752;51.960;5.886;2022-07-21T13:13:06;20.60;99.90
36800;DHT22;22752;51.960;5.886;2022-07-21T13:15:32;20.70;99.90
36800;DHT22;22752;51.960;5.886;2022-07-21T13:17:57;20.60;99.90
36800;DHT22;22752;51.960;5.886;2022-07-21T13:20:23;20.70;99.90
36800;DHT22;22752;51.960;5.886;2022-07-21T13:22:49;20.70;99.90
36800;DHT22;22752;51.960;5.886;2022-07-21T13:25:14;20.70;99.90
36800;DHT22;22752;51.960;5.886;2022-07-21T13:27:40;20.70;99.90
36800;DHT22;22752;51.960;5.886;2022-07-21T13:30:07;20.70;99.90
36800;DHT22;22752;51.960;5.886;2022-07-21T13:32:36;20.60;99.90
36800;DHT22;22752;51.960;5.886;2022-07-21T13:35:04;20.60;99.90
36800;DHT22;22752;51.960;5.886;2022-07-21T13:37:29;20.50;99.90
36800;DHT22;22752;51.960;5.886;2022-07-21T13:39:55;20.50;99.90
36800;DHT22;22752;51.960;5.886;2022-07-21T13:42:21;20.60;99.90
36800;DHT22;22752;51.960;5.886;2022-07-21T13:44:46;20.60;99.90
36800;DHT22;22752;51.960;5.886;2022-07-21T13:47:12;20.70;99.90
36800;DHT22;22752;51.960;5.886;2022-07-21T13:49:38;20.80;99.90
36800;DHT22;22752;51.960;5.886;2022-07-21T13:52:04;21.00;99.90
36800;DHT22;22752;51.960;5.886;2022-07-21T13:54:29;21.00;99.90
36800;DHT22;22752;51.960;5.886;2022-07-21T13:56:55;21.10;99.90
36800;DHT22;22752;51.960;5.886;2022-07-21T13:59:22;21.10;99.90
36800;DHT22;22752;51.960;5.886;2022-07-21T14:01:48;21.10;99.90
36800;DHT22;22752;51.960;5.886;2022-07-21T14:04:14;21.10;99.90
36800;DHT22;22752;51.960;5.886;2022-07-21T14:06:39;21.00;99.90
36800;DHT22;22752;51.960;5.886;2022-07-21T14:09:05;21.00;99.90
36800;DHT22;22752;51.960;5.886;2022-07-21T14:11:31;21.00;99.90
36800;DHT22;22752;51.960;5.886;2022-07-21T14:13:57;21.10;99.90
36800;DHT22;22752;51.960;5.886;2022-07-21T14:16:22;21.10;99.90
36800;DHT22;22752;51.960;5.886;2022-07-21T14:18:48;21.30;99.90
36800;DHT22;22752;51.960;5.886;2022-07-21T14:21:13;21.60;99.90
36800;DHT22;22752;51.960;5.886;2022-07-21T14:23:39;21.80;99.90
36800;DHT22;22752;51.960;5.886;2022-07-21T14:26:05;22.10;99.90
36800;DHT22;22752;51.960;5.886;2022-07-21T14:28:30;22.10;99.90
36800;DHT22;22752;51.960;5.886;2022-07-21T14:30:56;22.00;99.90
36800;DHT22;22752;51.960;5.886;2022-07-21T14:33:22;21.70;99.90
36800;DHT22;22752;51.960;5.886;2022-07-21T14:35:48;21.40;99.90
36800;DHT22;22752;51.960;5.886;2022-07-21T14:38:13;21.10;99.90
36800;DHT22;22752;51.960;5.886;2022-07-21T14:40:39;20.90;99.90
36800;DHT22;22752;51.960;5.886;2022-07-21T14:43:05;20.80;99.90
36800;DHT22;22752;51.960;5.886;2022-07-21T14:45:31;20.80;99.90
36800;DHT22;22752;51.960;5.886;2022-07-21T14:47:57;21.00;99.90
36800;DHT22;22752;51.960;5.886;2022-07-21T14:50:25;21.30;99.90
36800;DHT22;22752;51.960;5.886;2022-07-21T14:52:51;21.60;99.90
36800;DHT22;22752;51.960;5.886;2022-07-21T14:55:17;21.80;99.90
36800;DHT22;22752;51.960;5.886;2022-07-21T14:57:43;21.80;99.90
36800;DHT22;22752;51.960;5.886;2022-07-21T15:00:10;21.80;99.90
36800;DHT22;22752;51.960;5.886;2022-07-21T15:02:36;21.90;99.90
36800;DHT22;22752;51.960;5.886;2022-07-21T15:05:02;21.90;99.90
36800;DHT22;22752;51.960;5.886;2022-07-21T15:07:28;21.80;99.90
36800;DHT22;22752;51.960;5.886;2022-07-21T15:09:54;21.70;99.90
36800;DHT22;22752;51.960;5.886;2022-07-21T15:12:21;21.60;99.90
36800;DHT22;22752;51.960;5.886;2022-07-21T15:14:47;21.40;99.90
36800;DHT22;22752;51.960;5.886;2022-07-21T15:17:13;21.30;99.90
36800;DHT22;22752;51.960;5.886;2022-07-21T15:19:41;21.10;99.90
36800;DHT22;22752;51.960;5.886;2022-07-21T15:22:07;21.10;99.90
36800;DHT22;22752;51.960;5.886;2022-07-21T15:24:33;21.10;99.90
36800;DHT22;22752;51.960;5.886;2022-07-21T15:26:59;21.20;99.90
36800;DHT22;22752;51.960;5.886;2022-07-21T15:29:25;21.20;99.90
36800;DHT22;22752;51.960;5.886;2022-07-21T15:31:50;21.10;99.90
36800;DHT22;22752;51.960;5.886;2022-07-21T15:34:16;21.10;99.90
36800;DHT22;22752;51.960;5.886;2022-07-21T15:36:42;21.10;99.90
36800;DHT22;22752;51.960;5.886;2022-07-21T15:39:08;21.20;99.90
36800;DHT22;22752;51.960;5.886;2022-07-21T15:41:36;21.30;99.90
36800;DHT22;22752;51.960;5.886;2022-07-21T15:44:02;21.20;99.90
36800;DHT22;22752;51.960;5.886;2022-07-21T15:46:28;21.20;99.90
36800;DHT22;22752;51.960;5.886;2022-07-21T15:48:53;21.10;99.90
36800;DHT22;22752;51.960;5.886;2022-07-21T15:51:19;20.90;99.90
36800;DHT22;22752;51.960;5.886;2022-07-21T15:53:45;20.90;99.90
36800;DHT22;22752;51.960;5.886;2022-07-21T15:56:10;20.90;99.90
36800;DHT22;22752;51.960;5.886;2022-07-21T15:58:36;20.80;99.90
36800;DHT22;22752;51.960;5.886;2022-07-21T16:01:21;20.80;99.90
36800;DHT22;22752;51.960;5.886;2022-07-21T16:03:47;20.80;99.90
36800;DHT22;22752;51.960;5.886;2022-07-21T16:06:12;20.80;99.90
36800;DHT22;22752;51.960;5.886;2022-07-21T16:08:38;20.80;99.90
36800;DHT22;22752;51.960;5.886;2022-07-21T16:11:04;20.80;99.90